Time;durP1;ratioP1;P1;durP2;ratioP2;P2;SDS_P1;SDS_P2;PMS_P1;PMS_P2;Temp;Humidity;BMP_temperature;BMP_pressure;BME280_temperature;BME280_humidity;BME280_pressure;Samples;Min_cycle;Max_cycle;Signal;HPM_P1;HPM_P2
2024/03/03 00:00:45;;;;;;;121.43;43.42;;;6.50;100.00;;;;;;5067227;28;20076;-78
2024/03/03 00:03:12;;;;;;;109.55;39.90;;;6.50;100.00;;;;;;5052974;28;20055;-78
2024/03/03 00:05:39;;;;;;;116.55;41.42;;;6.50;100.00;;;;;;5071677;28;20064;-79
2024/03/03 00:08:06;;;;;;;109.40;40.03;;;6.50;100.00;;;;;;5068149;28;20048;-78
2024/03/03 00:10:33;;;;;;;113.35;40.83;;;6.40;100.00;;;;;;5074959;28;20049;-78
2024/03/03 00:13:00;;;;;;;131.30;41.88;;;6.40;100.00;;;;;;5065571;28;20040;-78
2024/03/03 00:15:27;;;;;;;118.63;40.60;;;6.40;100.00;;;;;;5066392;28;20049;-79
2024/03/03 00:17:54;;;;;;;123.40;40.63;;;6.40;100.00;;;;;;5044634;28;20080;-78
2024/03/03 00:20:21;;;;;;;111.95;40.20;;;6.40;100.00;;;;;;5070893;28;20045;-78
2024/03/03 00:22:48;;;;;;;120.13;41.97;;;6.40;100.00;;;;;;5067618;28;20052;-77
2024/03/03 00:25:15;;;;;;;124.18;41.65;;;6.40;100.00;;;;;;5069808;28;20040;-78
2024/03/03 00:27:42;;;;;;;127.25;42.53;;;6.40;100.00;;;;;;5069557;28;20106;-78
2024/03/03 00:30:10;;;;;;;114.68;41.72;;;6.40;100.00;;;;;;5046695;28;20052;-78
2024/03/03 00:32:36;;;;;;;114.78;43.00;;;6.40;100.00;;;;;;5074383;28;20055;-78
2024/03/03 00:35:03;;;;;;;126.15;42.60;;;6.50;100.00;;;;;;5073381;28;20076;-78
2024/03/03 00:37:30;;;;;;;126.28;43.78;;;6.50;100.00;;;;;;5076021;28;20102;-78
2024/03/03 00:39:57;;;;;;;121.47;41.42;;;6.50;100.00;;;;;;5045789;28;20057;-78
2024/03/03 00:42:24;;;;;;;134.95;43.55;;;6.50;100.00;;;;;;5051684;28;20056;-78
2024/03/03 00:44:51;;;;;;;126.55;43.03;;;6.50;100.00;;;;;;5066101;28;20090;-78
2024/03/03 00:47:18;;;;;;;137.30;45.78;;;6.60;100.00;;;;;;5069946;28;20193;-78
2024/03/03 00:49:44;;;;;;;140.85;45.78;;;6.60;100.00;;;;;;5069808;28;20087;-78
2024/03/03 00:52:13;;;;;;;141.05;45.90;;;6.60;100.00;;;;;;5056243;28;20547;-78
2024/03/03 00:54:40;;;;;;;127.63;45.72;;;6.60;100.00;;;;;;5068522;28;20048;-78
2024/03/03 00:57:07;;;;;;;129.50;46.90;;;6.60;100.00;;;;;;5048231;28;20040;-79
2024/03/03 00:59:34;;;;;;;141.05;46.80;;;6.70;100.00;;;;;;5050474;28;20052;-79
2024/03/03 01:02:01;;;;;;;133.65;43.17;;;6.70;100.00;;;;;;5076283;28;20466;-78
2024/03/03 01:04:28;;;;;;;146.75;44.05;;;6.70;100.00;;;;;;5064002;28;20056;-78
2024/03/03 01:06:55;;;;;;;142.57;43.50;;;6.70;100.00;;;;;;5059920;28;20098;-78
2024/03/03 01:09:22;;;;;;;144.98;47.67;;;6.70;100.00;;;;;;5076345;28;20094;-78
2024/03/03 01:11:53;;;;;;;138.27;45.25;;;6.70;100.00;;;;;;5068817;28;20056;-78
2024/03/03 01:14:23;;;;;;;142.70;45.90;;;6.70;100.00;;;;;;5068805;28;20044;-79
2024/03/03 01:16:50;;;;;;;137.88;46.47;;;6.70;100.00;;;;;;5048676;28;20052;-78
2024/03/03 01:19:17;;;;;;;143.02;46.40;;;6.70;100.00;;;;;;5072085;28;20097;-78
2024/03/03 01:21:44;;;;;;;149.77;48.10;;;6.70;100.00;;;;;;5073638;28;20061;-78
2024/03/03 01:24:10;;;;;;;144.82;48.80;;;6.70;100.00;;;;;;5066067;28;20049;-78
2024/03/03 01:26:37;;;;;;;145.00;47.53;;;6.70;100.00;;;;;;5070298;28;20049;-78
2024/03/03 01:29:04;;;;;;;143.77;48.25;;;6.70;100.00;;;;;;5067660;28;20064;-79
2024/03/03 01:31:31;;;;;;;148.82;47.83;;;6.70;100.00;;;;;;5076894;28;20053;-78
2024/03/03 01:33:58;;;;;;;150.80;48.63;;;6.70;100.00;;;;;;5051158;28;20052;-78
2024/03/03 01:36:26;;;;;;;138.25;46.75;;;6.70;100.00;;;;;;5067529;28;20045;-78
2024/03/03 01:38:54;;;;;;;142.40;45.83;;;6.70;100.00;;;;;;5052286;28;20059;-79
2024/03/03 01:41:21;;;;;;;144.48;46.42;;;6.60;100.00;;;;;;5073891;28;20044;-78
2024/03/03 01:43:47;;;;;;;133.75;47.58;;;6.60;100.00;;;;;;5075656;28;20052;-78
2024/03/03 01:46:14;;;;;;;155.35;47.67;;;6.60;100.00;;;;;;5074902;28;20150;-78
2024/03/03 01:48:41;;;;;;;146.38;48.58;;;6.50;100.00;;;;;;5056425;28;20048;-78
2024/03/03 01:51:09;;;;;;;141.10;46.22;;;6.50;100.00;;;;;;5052787;28;20488;-78
2024/03/03 01:53:38;;;;;;;159.75;49.05;;;6.50;100.00;;;;;;5078234;28;20047;-78
2024/03/03 01:56:05;;;;;;;143.10;48.05;;;6.50;100.00;;;;;;5072952;28;20070;-78
2024/03/03 01:58:33;;;;;;;154.10;49.08;;;6.50;100.00;;;;;;5071121;28;20685;-78
2024/03/03 02:01:00;;;;;;;166.45;52.05;;;6.60;100.00;;;;;;5075334;28;20105;-79
2024/03/03 02:03:30;;;;;;;150.75;47.92;;;6.50;100.00;;;;;;5079880;28;20102;-78
2024/03/03 02:05:56;;;;;;;162.95;51.60;;;6.60;100.00;;;;;;5070103;28;20050;-78
2024/03/03 02:08:23;;;;;;;167.05;52.22;;;6.60;100.00;;;;;;5072455;28;20504;-78
2024/03/03 02:10:50;;;;;;;161.23;50.92;;;6.60;100.00;;;;;;5072195;28;20064;-78
2024/03/03 02:13:17;;;;;;;172.38;51.78;;;6.60;100.00;;;;;;5057909;28;20044;-78
2024/03/03 02:15:44;;;;;;;163.20;53.45;;;6.60;100.00;;;;;;5056359;28;20080;-79
2024/03/03 02:18:11;;;;;;;168.25;53.65;;;6.60;100.00;;;;;;5056337;28;20139;-78
2024/03/03 02:20:38;;;;;;;176.50;52.83;;;6.60;100.00;;;;;;5063660;28;20039;-78
2024/03/03 02:23:05;;;;;;;167.35;52.90;;;6.60;100.00;;;;;;5056533;28;20052;-78
2024/03/03 02:25:32;;;;;;;163.23;51.10;;;6.60;100.00;;;;;;5063160;28;20821;-78
2024/03/03 02:28:01;;;;;;;172.35;51.40;;;6.50;100.00;;;;;;5067972;28;20052;-78
2024/03/03 02:30:28;;;;;;;179.07;52.33;;;6.50;100.00;;;;;;5053318;28;20049;-79
2024/03/03 02:32:55;;;;;;;183.93;54.40;;;6.50;100.00;;;;;;5076048;28;20080;-78
2024/03/03 02:35:22;;;;;;;167.45;52.85;;;6.40;100.00;;;;;;5076236;28;20800;-79
2024/03/03 02:37:49;;;;;;;172.38;55.17;;;6.40;100.00;;;;;;5075418;28;20076;-78
2024/03/03 02:40:16;;;;;;;174.35;53.92;;;6.40;100.00;;;;;;5063735;28;20074;-78
2024/03/03 02:42:43;;;;;;;174.65;54.20;;;6.40;100.00;;;;;;5066463;28;20127;-78
2024/03/03 02:45:10;;;;;;;165.68;52.85;;;6.30;100.00;;;;;;5065324;28;20051;-79
2024/03/03 02:47:37;;;;;;;177.50;55.05;;;6.30;100.00;;;;;;5076244;28;20744;-78
2024/03/03 02:50:04;;;;;;;169.85;50.42;;;6.30;100.00;;;;;;5066467;28;20424;-79
2024/03/03 02:52:31;;;;;;;178.25;53.72;;;6.30;100.00;;;;;;5062867;28;20056;-78
2024/03/03 02:54:58;;;;;;;181.85;54.38;;;6.30;100.00;;;;;;5071664;28;20044;-78
2024/03/03 02:57:24;;;;;;;193.18;55.03;;;6.30;100.00;;;;;;5072740;28;20048;-78
2024/03/03 02:59:51;;;;;;;171.02;54.03;;;6.30;100.00;;;;;;5072322;28;20048;-79
2024/03/03 03:02:18;;;;;;;165.65;53.00;;;6.20;100.00;;;;;;5060996;28;20045;-79
2024/03/03 03:04:45;;;;;;;178.57;53.03;;;6.20;100.00;;;;;;5074458;28;20465;-79
2024/03/03 03:07:12;;;;;;;169.60;54.05;;;6.20;100.00;;;;;;5072744;28;20052;-79
2024/03/03 03:09:39;;;;;;;167.13;52.83;;;6.20;100.00;;;;;;5074256;28;20784;-79
2024/03/03 03:12:06;;;;;;;177.00;54.35;;;6.20;100.00;;;;;;5077696;28;20051;-78
2024/03/03 03:14:33;;;;;;;193.25;56.85;;;6.20;100.00;;;;;;5072592;28;20047;-78
2024/03/03 03:17:00;;;;;;;175.82;53.85;;;6.20;100.00;;;;;;5052267;28;20040;-78
2024/03/03 03:19:30;;;;;;;178.90;52.05;;;6.20;100.00;;;;;;5070994;28;20110;-78
2024/03/03 03:21:56;;;;;;;173.40;54.42;;;6.20;100.00;;;;;;5049564;28;20045;-79
2024/03/03 03:24:23;;;;;;;182.35;55.42;;;6.20;100.00;;;;;;5073200;28;20048;-78
2024/03/03 03:26:50;;;;;;;188.27;55.30;;;6.20;100.00;;;;;;5080100;28;20052;-78
2024/03/03 03:29:17;;;;;;;183.80;54.08;;;6.20;100.00;;;;;;5074199;28;20052;-79
2024/03/03 03:31:44;;;;;;;198.63;57.10;;;6.20;100.00;;;;;;5071005;28;20052;-79
2024/03/03 03:34:11;;;;;;;178.20;55.47;;;6.20;100.00;;;;;;5081931;28;20047;-79
2024/03/03 03:36:38;;;;;;;186.20;56.97;;;6.20;100.00;;;;;;5068966;28;20128;-78
2024/03/03 03:39:11;;;;;;;178.18;54.05;;;6.20;100.00;;;;;;5072932;28;20453;-79
2024/03/03 03:41:46;;;;;;;178.40;55.47;;;6.20;100.00;;;;;;5069257;28;20068;-78
2024/03/03 03:44:15;;;;;;;182.45;56.88;;;6.20;100.00;;;;;;5061093;28;20052;-79
2024/03/03 03:46:42;;;;;;;195.25;57.03;;;6.20;100.00;;;;;;5059546;28;20534;-78
2024/03/03 03:49:09;;;;;;;194.38;58.45;;;6.20;100.00;;;;;;5050310;28;20044;-78
2024/03/03 03:51:40;;;;;;;177.07;54.88;;;6.20;100.00;;;;;;5070697;28;20060;-79
2024/03/03 03:54:07;;;;;;;181.32;55.35;;;6.20;100.00;;;;;;5058829;28;20062;-79
2024/03/03 03:56:34;;;;;;;190.80;58.10;;;6.20;100.00;;;;;;5069886;28;20087;-79
2024/03/03 03:59:03;;;;;;;170.45;58.63;;;6.20;100.00;;;;;;5058495;28;20396;-78
2024/03/03 04:01:30;;;;;;;189.32;57.40;;;6.20;100.00;;;;;;5051536;28;20049;-78
2024/03/03 04:03:58;;;;;;;195.70;57.38;;;6.20;100.00;;;;;;5049629;28;20106;-78
2024/03/03 04:06:27;;;;;;;189.85;57.13;;;6.20;100.00;;;;;;5065374;28;20051;-78
2024/03/03 04:08:54;;;;;;;171.00;56.15;;;6.30;100.00;;;;;;5068597;28;20048;-79
2024/03/03 04:11:21;;;;;;;194.40;57.90;;;6.20;100.00;;;;;;5064167;28;20477;-78
2024/03/03 04:13:49;;;;;;;206.23;58.00;;;6.20;100.00;;;;;;5068747;28;20083;-79
2024/03/03 04:16:20;;;;;;;187.38;58.72;;;6.20;100.00;;;;;;5065510;28;20186;-78
2024/03/03 04:18:47;;;;;;;193.45;56.35;;;6.20;100.00;;;;;;5038617;28;20064;-78
2024/03/03 04:21:14;;;;;;;190.35;59.92;;;6.20;100.00;;;;;;5067378;28;20048;-78
2024/03/03 04:23:41;;;;;;;200.27;57.78;;;6.20;100.00;;;;;;5049222;28;20052;-78
2024/03/03 04:26:09;;;;;;;194.65;57.97;;;6.30;100.00;;;;;;5052801;28;20201;-79
2024/03/03 04:28:37;;;;;;;195.77;57.65;;;6.30;100.00;;;;;;5077482;28;20057;-78
2024/03/03 04:31:08;;;;;;;170.02;57.67;;;6.30;100.00;;;;;;5081481;28;20097;-78
2024/03/03 04:33:38;;;;;;;196.98;58.85;;;6.30;100.00;;;;;;5072153;28;20507;-78
2024/03/03 04:36:11;;;;;;;197.25;56.85;;;6.30;100.00;;;;;;5054333;28;20044;-78
2024/03/03 04:38:42;;;;;;;194.68;58.08;;;6.30;100.00;;;;;;5072909;28;20870;-79
2024/03/03 04:41:19;;;;;;;186.27;59.05;;;6.30;100.00;;;;;;5069168;28;20049;-78
2024/03/03 04:43:46;;;;;;;182.57;55.30;;;6.30;100.00;;;;;;5053542;28;20060;-78
2024/03/03 04:46:13;;;;;;;180.65;57.63;;;6.30;100.00;;;;;;5069067;28;20520;-78
2024/03/03 04:48:41;;;;;;;195.43;59.28;;;6.30;100.00;;;;;;5084438;28;20052;-79
2024/03/03 04:51:08;;;;;;;187.25;59.10;;;6.40;100.00;;;;;;5085286;28;20067;-79
2024/03/03 04:53:35;;;;;;;210.63;61.78;;;6.40;100.00;;;;;;5071339;28;20107;-79
2024/03/03 04:56:02;;;;;;;222.68;64.70;;;6.40;100.00;;;;;;5079019;28;20041;-78
2024/03/03 04:58:29;;;;;;;205.60;62.22;;;6.50;100.00;;;;;;5081066;28;20044;-79
2024/03/03 05:00:55;;;;;;;211.07;63.00;;;6.50;100.00;;;;;;5069510;28;20090;-79
2024/03/03 05:03:24;;;;;;;221.65;64.95;;;6.50;100.00;;;;;;5063720;28;20054;-79
2024/03/03 05:05:51;;;;;;;223.00;63.40;;;6.50;100.00;;;;;;5048471;28;20389;-79
2024/03/03 05:08:18;;;;;;;213.13;63.30;;;6.50;100.00;;;;;;5068402;28;20791;-79
2024/03/03 05:10:44;;;;;;;217.68;66.18;;;6.50;100.00;;;;;;5074829;28;20072;-78
2024/03/03 05:13:11;;;;;;;219.90;64.38;;;6.50;100.00;;;;;;5063010;28;20050;-77
2024/03/03 05:15:38;;;;;;;226.90;64.05;;;6.60;100.00;;;;;;5070152;28;20045;-77
2024/03/03 05:18:05;;;;;;;220.48;65.03;;;6.60;100.00;;;;;;5076455;28;20090;-77
2024/03/03 05:20:32;;;;;;;220.25;64.25;;;6.60;100.00;;;;;;5071289;28;20695;-77
2024/03/03 05:22:59;;;;;;;229.13;64.35;;;6.70;100.00;;;;;;5074517;28;20044;-78
2024/03/03 05:25:26;;;;;;;228.15;66.32;;;6.60;100.00;;;;;;5064763;28;20110;-78
2024/03/03 05:27:53;;;;;;;225.52;66.15;;;6.70;100.00;;;;;;5063651;28;20054;-78
2024/03/03 05:30:20;;;;;;;220.15;62.85;;;6.70;100.00;;;;;;5075116;28;20455;-78
2024/03/03 05:32:47;;;;;;;229.73;66.20;;;6.70;100.00;;;;;;5070018;28;20053;-78
2024/03/03 05:35:14;;;;;;;236.68;66.53;;;6.70;100.00;;;;;;5055837;28;20720;-78
2024/03/03 05:37:41;;;;;;;237.07;67.43;;;6.70;100.00;;;;;;5050494;28;20048;-78
2024/03/03 05:40:08;;;;;;;240.07;68.32;;;6.70;100.00;;;;;;5068231;28;20442;-79
2024/03/03 05:42:36;;;;;;;214.70;63.35;;;6.80;100.00;;;;;;5074379;28;20091;-78
2024/03/03 05:45:03;;;;;;;243.85;65.95;;;6.80;100.00;;;;;;5071020;28;20075;-79
2024/03/03 05:47:29;;;;;;;254.75;66.82;;;6.80;100.00;;;;;;5078261;28;20653;-78
2024/03/03 05:49:56;;;;;;;250.52;65.88;;;6.80;100.00;;;;;;5068401;28;20044;-78
2024/03/03 05:52:23;;;;;;;240.77;65.70;;;6.90;100.00;;;;;;5077745;28;20098;-76
2024/03/03 05:54:50;;;;;;;254.63;66.13;;;6.90;100.00;;;;;;5057867;28;20049;-79
2024/03/03 05:57:17;;;;;;;232.65;64.10;;;6.90;100.00;;;;;;5069339;28;20040;-79
2024/03/03 05:59:45;;;;;;;260.50;64.57;;;6.90;100.00;;;;;;5072367;28;20108;-79
2024/03/03 06:02:11;;;;;;;243.43;68.03;;;7.00;100.00;;;;;;5075206;28;20492;-79
2024/03/03 06:04:38;;;;;;;255.63;68.80;;;6.90;100.00;;;;;;5070296;28;20056;-78
2024/03/03 06:07:05;;;;;;;243.10;66.28;;;7.00;100.00;;;;;;5071892;28;20048;-78
2024/03/03 06:09:33;;;;;;;252.57;66.78;;;7.00;100.00;;;;;;5072143;28;20048;-79
2024/03/03 06:12:01;;;;;;;239.82;65.85;;;6.90;100.00;;;;;;5065976;28;20146;-78
2024/03/03 06:14:28;;;;;;;248.85;67.10;;;7.00;100.00;;;;;;5069822;28;20497;-79
2024/03/03 06:16:55;;;;;;;261.98;66.28;;;7.00;100.00;;;;;;5067660;28;20128;-79
2024/03/03 06:19:22;;;;;;;253.65;67.50;;;7.00;100.00;;;;;;5078523;28;20047;-79
2024/03/03 06:21:52;;;;;;;271.38;67.50;;;7.00;100.00;;;;;;5066366;28;20053;-80
2024/03/03 06:24:19;;;;;;;282.55;69.07;;;7.00;100.00;;;;;;5084317;28;20508;-79
2024/03/03 06:26:46;;;;;;;264.30;65.13;;;7.00;100.00;;;;;;5053539;28;20063;-75
2024/03/03 06:29:14;;;;;;;267.92;68.00;;;7.10;100.00;;;;;;5046315;28;20064;-75
2024/03/03 06:31:45;;;;;;;291.75;68.63;;;7.10;100.00;;;;;;5063787;28;20135;-75
2024/03/03 06:34:12;;;;;;;275.35;67.63;;;7.10;100.00;;;;;;5064475;28;20141;-75
2024/03/03 06:36:39;;;;;;;263.90;67.72;;;7.10;100.00;;;;;;5064369;28;20157;-75
2024/03/03 06:39:10;;;;;;;289.65;68.70;;;7.10;100.00;;;;;;5067056;28;20048;-75
2024/03/03 06:41:36;;;;;;;277.58;67.35;;;7.10;100.00;;;;;;5064837;28;20044;-75
2024/03/03 06:44:05;;;;;;;267.98;65.88;;;7.20;100.00;;;;;;5074744;28;20051;-75
2024/03/03 06:46:33;;;;;;;292.80;69.03;;;7.20;100.00;;;;;;5070339;28;20173;-75
2024/03/03 06:49:05;;;;;;;273.95;66.78;;;7.20;100.00;;;;;;5044185;28;21082;-76
2024/03/03 06:51:33;;;;;;;268.55;65.68;;;7.20;100.00;;;;;;5042186;28;20194;-76
2024/03/03 06:54:00;;;;;;;264.02;66.38;;;7.20;100.00;;;;;;5046851;28;20079;-76
2024/03/03 06:56:27;;;;;;;265.17;67.95;;;7.30;100.00;;;;;;5063194;28;20075;-76
2024/03/03 06:58:54;;;;;;;282.38;70.30;;;7.30;100.00;;;;;;5058984;28;20056;-76
2024/03/03 07:01:21;;;;;;;282.92;71.97;;;7.30;100.00;;;;;;5066782;28;20490;-76
2024/03/03 07:06:23;;;;;;;268.08;67.82;;;7.40;100.00;;;;;;5061376;28;20051;-76
2024/03/03 07:08:51;;;;;;;267.38;68.78;;;7.40;100.00;;;;;;5060141;28;20145;-77
2024/03/03 07:14:44;;;;;;;266.77;65.40;;;7.50;100.00;;;;;;5049591;22;20049;-76
2024/03/03 07:17:11;;;;;;;252.40;68.07;;;7.50;100.00;;;;;;5051008;28;20821;-76
2024/03/03 07:19:38;;;;;;;257.00;66.85;;;7.50;100.00;;;;;;5048020;28;20766;-76
2024/03/03 07:22:05;;;;;;;278.13;69.38;;;7.60;100.00;;;;;;5076925;28;20071;-80
2024/03/03 07:24:31;;;;;;;249.38;67.68;;;7.60;100.00;;;;;;5053398;28;20148;-76
2024/03/03 07:27:03;;;;;;;284.27;69.50;;;7.60;100.00;;;;;;5065456;28;20048;-77
2024/03/03 07:29:29;;;;;;;264.33;67.50;;;7.60;100.00;;;;;;5058933;28;20125;-77
2024/03/03 07:31:56;;;;;;;246.40;67.93;;;7.70;100.00;;;;;;5072304;28;20056;-76
2024/03/03 07:34:23;;;;;;;278.52;69.22;;;7.70;100.00;;;;;;5078262;28;20680;-77
2024/03/03 07:36:50;;;;;;;273.55;68.28;;;7.70;100.00;;;;;;5076280;28;20055;-79
2024/03/03 07:39:17;;;;;;;295.63;71.10;;;7.80;100.00;;;;;;5088605;22;20041;-78
2024/03/03 07:41:44;;;;;;;260.52;66.78;;;7.80;100.00;;;;;;5062057;28;20076;-75
2024/03/03 07:44:11;;;;;;;254.55;69.40;;;7.80;100.00;;;;;;5051358;28;20538;-78
2024/03/03 07:46:38;;;;;;;290.52;73.20;;;7.90;100.00;;;;;;5047085;28;20848;-75
2024/03/03 07:49:04;;;;;;;275.88;69.13;;;7.90;100.00;;;;;;5048458;28;20109;-85
2024/03/03 07:51:31;;;;;;;253.57;68.95;;;7.90;100.00;;;;;;5050406;28;20072;-82
2024/03/03 07:53:59;;;;;;;271.33;68.70;;;7.90;100.00;;;;;;5066948;28;20083;-79
2024/03/03 07:56:26;;;;;;;280.05;68.72;;;7.90;100.00;;;;;;5045163;28;20067;-87
2024/03/03 07:58:53;;;;;;;262.02;66.18;;;8.00;100.00;;;;;;5042698;28;20056;-80
2024/03/03 08:01:19;;;;;;;254.38;65.60;;;8.00;100.00;;;;;;5060927;28;20048;-76
2024/03/03 08:03:46;;;;;;;274.27;67.60;;;8.00;100.00;;;;;;5042016;28;20633;-77
2024/03/03 08:06:13;;;;;;;254.35;67.80;;;8.00;100.00;;;;;;5043933;28;20141;-76
2024/03/03 08:08:40;;;;;;;247.85;66.38;;;8.10;100.00;;;;;;5044843;28;20094;-83
2024/03/03 08:11:07;;;;;;;271.77;66.88;;;8.10;100.00;;;;;;5060690;28;20133;-76
2024/03/03 08:13:33;;;;;;;275.13;67.32;;;8.10;100.00;;;;;;5059050;28;20127;-76
2024/03/03 08:16:00;;;;;;;267.17;68.97;;;8.20;100.00;;;;;;5060705;28;20124;-79
2024/03/03 08:18:27;;;;;;;275.30;66.82;;;8.20;100.00;;;;;;5046300;28;20078;-78
2024/03/03 08:20:54;;;;;;;285.80;68.35;;;8.20;100.00;;;;;;5057726;28;20076;-78
2024/03/03 08:23:21;;;;;;;252.85;67.63;;;8.30;100.00;;;;;;5065025;28;20107;-78
2024/03/03 08:25:47;;;;;;;278.98;69.65;;;8.30;100.00;;;;;;5064873;28;20441;-80
2024/03/03 08:28:14;;;;;;;282.90;68.65;;;8.40;100.00;;;;;;5050107;28;20048;-80
2024/03/03 08:30:41;;;;;;;288.27;69.03;;;8.40;100.00;;;;;;5058099;28;20056;-78
2024/03/03 08:33:08;;;;;;;254.57;68.20;;;8.50;100.00;;;;;;5059994;28;20071;-74
2024/03/03 08:35:35;;;;;;;265.60;68.50;;;8.50;100.00;;;;;;5061404;28;20048;-74
2024/03/03 08:38:02;;;;;;;249.48;67.45;;;8.60;100.00;;;;;;5058851;28;20052;-80
2024/03/03 08:40:29;;;;;;;276.52;70.90;;;8.70;100.00;;;;;;5068113;28;20122;-85
2024/03/03 08:42:56;;;;;;;252.77;66.00;;;8.70;100.00;;;;;;5056083;28;20041;-76
2024/03/03 08:45:23;;;;;;;255.82;66.72;;;8.70;100.00;;;;;;5043440;28;20056;-79
2024/03/03 08:47:50;;;;;;;261.95;69.70;;;8.70;100.00;;;;;;5054527;28;20057;-79
2024/03/03 08:50:17;;;;;;;251.68;69.18;;;8.80;100.00;;;;;;5046228;28;20181;-80
2024/03/03 08:52:43;;;;;;;244.63;67.72;;;8.80;100.00;;;;;;5063036;28;20394;-76
2024/03/03 08:55:11;;;;;;;263.90;69.07;;;8.90;100.00;;;;;;5050888;28;20092;-76
2024/03/03 08:57:42;;;;;;;251.20;68.57;;;8.90;100.00;;;;;;5039943;28;20562;-77
2024/03/03 09:00:13;;;;;;;254.52;66.82;;;9.00;100.00;;;;;;5039258;28;20114;-77
2024/03/03 09:02:40;;;;;;;250.85;67.35;;;9.00;100.00;;;;;;5054430;28;20131;-77
2024/03/03 09:05:08;;;;;;;249.48;67.13;;;9.00;100.00;;;;;;5043138;28;20083;-78
2024/03/03 09:11:01;;;;;;;264.23;67.82;;;9.10;100.00;;;;;;5026462;28;20049;-80
2024/03/03 09:13:28;;;;;;;251.68;67.70;;;9.10;100.00;;;;;;5010187;28;20050;-80
2024/03/03 09:15:55;;;;;;;255.85;69.85;;;9.20;100.00;;;;;;5018883;28;20045;-75
2024/03/03 09:18:21;;;;;;;285.08;73.30;;;9.20;100.00;;;;;;5015214;28;20049;-83
2024/03/03 09:20:48;;;;;;;252.38;68.13;;;9.30;100.00;;;;;;5020850;28;20182;-83
2024/03/03 09:23:15;;;;;;;267.75;69.93;;;9.30;100.00;;;;;;5032549;28;20513;-81
2024/03/03 09:25:42;;;;;;;258.60;67.75;;;9.30;100.00;;;;;;5027513;28;20049;-77
2024/03/03 09:28:12;;;;;;;247.05;68.28;;;9.40;100.00;;;;;;5022722;28;20065;-76
2024/03/03 09:30:38;;;;;;;240.65;67.80;;;9.40;100.00;;;;;;5024537;28;20053;-77
2024/03/03 09:33:05;;;;;;;232.52;66.05;;;9.50;100.00;;;;;;5023714;28;20148;-77
2024/03/03 09:35:35;;;;;;;249.43;67.00;;;9.50;100.00;;;;;;5013624;28;20667;-78
2024/03/03 09:38:02;;;;;;;223.35;64.57;;;9.40;100.00;;;;;;5025182;28;20142;-78
2024/03/03 09:40:33;;;;;;;213.27;62.60;;;9.50;100.00;;;;;;5030884;22;20126;-74
2024/03/03 09:43:02;;;;;;;218.32;63.03;;;9.50;100.00;;;;;;5049914;28;20813;-74
2024/03/03 09:45:30;;;;;;;211.10;60.80;;;9.60;100.00;;;;;;5045924;28;20059;-74
2024/03/03 09:48:00;;;;;;;209.07;63.85;;;9.60;100.00;;;;;;5040446;28;20060;-74
2024/03/03 09:50:27;;;;;;;209.48;64.57;;;9.60;100.00;;;;;;5044626;28;20053;-74
2024/03/03 09:52:58;;;;;;;195.60;60.67;;;9.70;100.00;;;;;;5044939;28;20048;-74
2024/03/03 09:55:27;;;;;;;216.07;60.30;;;9.60;100.00;;;;;;5044144;28;20053;-76
2024/03/03 09:57:54;;;;;;;188.98;60.33;;;9.70;100.00;;;;;;5044899;28;20718;-73
2024/03/03 10:00:22;;;;;;;181.73;58.97;;;9.70;100.00;;;;;;5048205;28;20046;-78
2024/03/03 10:02:52;;;;;;;197.73;60.40;;;9.70;100.00;;;;;;5045210;28;20767;-77
2024/03/03 10:05:20;;;;;;;193.75;60.58;;;9.80;100.00;;;;;;5042909;28;20056;-77
2024/03/03 10:07:55;;;;;;;180.13;58.88;;;9.80;100.00;;;;;;5046836;28;20053;-75
2024/03/03 10:10:26;;;;;;;168.80;58.28;;;9.90;100.00;;;;;;5049259;28;20059;-75
2024/03/03 10:12:54;;;;;;;185.80;59.63;;;10.00;100.00;;;;;;5055007;28;20075;-77
2024/03/03 10:15:23;;;;;;;174.45;60.13;;;10.10;100.00;;;;;;5058045;28;20118;-76
2024/03/03 10:17:50;;;;;;;178.55;58.70;;;10.30;100.00;;;;;;5058238;28;20044;-77
2024/03/03 10:20:18;;;;;;;162.70;58.30;;;10.30;100.00;;;;;;5055459;28;20054;-76
2024/03/03 10:22:47;;;;;;;174.27;56.17;;;10.40;100.00;;;;;;5057675;28;20037;-75
2024/03/03 10:25:15;;;;;;;164.27;56.00;;;10.50;100.00;;;;;;5063210;28;20487;-77
2024/03/03 10:27:49;;;;;;;164.35;57.38;;;10.70;100.00;;;;;;5060770;28;20145;-76
2024/03/03 10:30:18;;;;;;;168.25;58.55;;;10.90;100.00;;;;;;5060637;28;20044;-75
2024/03/03 10:32:46;;;;;;;148.57;54.90;;;11.00;100.00;;;;;;5059397;28;20044;-77
2024/03/03 10:35:15;;;;;;;156.95;55.58;;;11.00;100.00;;;;;;5059498;28;20191;-74
2024/03/03 10:37:52;;;;;;;153.98;54.03;;;11.00;100.00;;;;;;5059327;28;20094;-78
2024/03/03 10:40:21;;;;;;;156.70;54.15;;;11.10;100.00;;;;;;5062644;28;20102;-80
2024/03/03 10:42:48;;;;;;;139.90;51.25;;;11.20;100.00;;;;;;5066845;28;20132;-81
2024/03/03 10:45:16;;;;;;;146.13;52.47;;;11.10;100.00;;;;;;5068139;28;20055;-80
2024/03/03 10:47:43;;;;;;;139.63;50.25;;;11.10;100.00;;;;;;5064988;28;20055;-82
2024/03/03 10:50:19;;;;;;;139.75;51.95;;;11.10;100.00;;;;;;5063519;28;20705;-80
2024/03/03 10:52:48;;;;;;;137.30;49.60;;;11.10;100.00;;;;;;5063300;28;20135;-79
2024/03/03 10:55:16;;;;;;;125.95;48.80;;;11.10;100.00;;;;;;5064110;28;20064;-80
2024/03/03 10:57:44;;;;;;;130.70;48.67;;;11.10;100.00;;;;;;5066475;28;20041;-79
2024/03/03 11:00:27;;;;;;;131.82;47.97;;;11.10;100.00;;;;;;5063567;28;20117;-78
2024/03/03 11:02:55;;;;;;;139.45;50.53;;;11.00;100.00;;;;;;5058870;28;20049;-78
2024/03/03 11:05:23;;;;;;;138.55;49.88;;;10.90;100.00;;;;;;5064978;28;20040;-79
2024/03/03 11:07:50;;;;;;;135.50;48.70;;;10.90;100.00;;;;;;5062777;28;20052;-80
2024/03/03 11:10:17;;;;;;;128.55;47.28;;;10.90;100.00;;;;;;5059091;28;20619;-80
2024/03/03 11:12:49;;;;;;;133.23;49.10;;;10.90;100.00;;;;;;5060988;28;20048;-77
2024/03/03 11:15:20;;;;;;;147.18;51.63;;;11.00;100.00;;;;;;5064338;28;20044;-78
2024/03/03 11:18:00;;;;;;;137.35;48.65;;;11.00;100.00;;;;;;5063820;28;20048;-80
2024/03/03 11:20:38;;;;;;;128.75;47.85;;;11.00;100.00;;;;;;5065128;28;20110;-76
2024/03/03 11:23:27;;;;;;;135.43;50.75;;;11.10;100.00;;;;;;5064957;28;20076;-79
2024/03/03 11:26:15;;;;;;;134.90;47.58;;;11.40;100.00;;;;;;5064472;28;20060;-78
2024/03/03 11:28:47;;;;;;;142.68;49.80;;;11.50;100.00;;;;;;5061569;28;20890;-77
2024/03/03 11:31:14;;;;;;;133.43;49.45;;;11.60;100.00;;;;;;5059112;28;20056;-77
2024/03/03 11:33:42;;;;;;;123.90;47.72;;;11.60;100.00;;;;;;5063101;28;20045;-77
2024/03/03 11:36:10;;;;;;;134.57;51.05;;;11.80;100.00;;;;;;5060550;28;20138;-77
2024/03/03 11:38:46;;;;;;;122.68;48.30;;;12.00;100.00;;;;;;5059951;28;20048;-77
2024/03/03 11:41:16;;;;;;;148.50;50.70;;;12.10;100.00;;;;;;5058357;28;20045;-76
2024/03/03 11:43:44;;;;;;;128.77;49.08;;;12.10;100.00;;;;;;5060262;28;20837;-77
2024/03/03 11:46:47;;;;;;;129.52;49.97;;;12.20;100.00;;;;;;5060782;28;20058;-77
2024/03/03 11:49:16;;;;;;;122.13;46.80;;;12.30;100.00;;;;;;5062031;28;20060;-77
2024/03/03 11:51:43;;;;;;;127.75;48.92;;;12.40;100.00;;;;;;5059201;28;20059;-79
2024/03/03 11:54:12;;;;;;;124.72;48.00;;;12.50;100.00;;;;;;5063717;28;20044;-79
2024/03/03 11:56:49;;;;;;;117.03;45.42;;;12.70;100.00;;;;;;5061230;28;20048;-78
2024/03/03 11:59:16;;;;;;;132.35;48.40;;;12.60;100.00;;;;;;5057836;28;20603;-76
2024/03/03 12:01:47;;;;;;;112.72;43.88;;;12.50;100.00;;;;;;5060757;28;20052;-74
2024/03/03 12:04:15;;;;;;;115.60;43.78;;;12.40;100.00;;;;;;5060598;28;20127;-76
2024/03/03 12:06:45;;;;;;;109.78;44.05;;;12.30;100.00;;;;;;5060382;28;20052;-76
2024/03/03 12:09:13;;;;;;;120.22;44.92;;;12.30;100.00;;;;;;5057424;28;20140;-76
2024/03/03 12:11:42;;;;;;;104.03;42.72;;;12.30;100.00;;;;;;5052965;28;20061;-76
2024/03/03 12:14:08;;;;;;;110.30;43.83;;;12.20;100.00;;;;;;5059864;28;20114;-77
2024/03/03 12:16:35;;;;;;;112.20;43.75;;;12.30;100.00;;;;;;5073637;22;20044;-76
2024/03/03 12:19:02;;;;;;;105.35;42.33;;;12.30;100.00;;;;;;5079838;28;20043;-76
2024/03/03 12:24:57;;;;;;;104.32;43.97;;;12.10;100.00;;;;;;5018257;28;20068;-76
2024/03/03 12:27:25;;;;;;;111.00;42.72;;;12.20;100.00;;;;;;5018959;28;20049;-76
2024/03/03 12:30:08;;;;;;;111.57;44.97;;;12.40;100.00;;;;;;5034930;28;20045;-76
2024/03/03 12:32:36;;;;;;;104.78;42.80;;;12.60;100.00;;;;;;5017445;28;20056;-76